createdAt,value
2023-05-11T00:01:30.664Z,6.13
2023-05-11T00:03:59.181Z,5.83
2023-05-11T00:06:27.086Z,5.73
2023-05-11T00:08:55.541Z,6.40
2023-05-11T00:11:24.208Z,6.47
2023-05-11T00:13:52.855Z,5.97
2023-05-11T00:16:21.552Z,5.97
2023-05-11T00:18:50.177Z,5.63
2023-05-11T00:21:18.710Z,5.73
2023-05-11T00:23:47.135Z,4.83
2023-05-11T00:26:15.589Z,5.63
2023-05-11T00:28:44.256Z,5.20
2023-05-11T00:31:12.428Z,5.93
2023-05-11T00:33:40.640Z,5.57
2023-05-11T00:36:08.963Z,5.00
2023-05-11T00:38:38.458Z,5.80
2023-05-11T00:43:33.304Z,5.62
2023-05-11T00:46:02.392Z,5.30
2023-05-11T00:48:31.317Z,5.87
2023-05-11T00:51:01.055Z,4.23
2023-05-11T00:53:29.578Z,4.57
2023-05-11T00:55:58.368Z,5.07
2023-05-11T00:58:26.687Z,4.37
2023-05-11T01:00:55.087Z,5.03
2023-05-11T01:03:23.897Z,5.10
2023-05-11T01:06:11.261Z,5.00
2023-05-11T01:08:43.935Z,4.67
2023-05-11T01:11:30.392Z,4.63
2023-05-11T01:14:00.454Z,4.80
2023-05-11T01:16:29.481Z,4.97
2023-05-11T01:18:59.338Z,4.70
2023-05-11T01:21:29.369Z,5.00
2023-05-11T01:24:02.067Z,4.70
2023-05-11T01:26:31.564Z,3.97
2023-05-11T01:29:10.184Z,5.03
2023-05-11T01:31:40.020Z,5.07
2023-05-11T01:34:12.666Z,4.30
2023-05-11T01:36:42.169Z,3.90
2023-05-11T01:39:11.911Z,5.37
2023-05-11T01:41:41.493Z,5.63
2023-05-11T01:44:12.257Z,5.13
2023-05-11T01:46:40.809Z,5.20
2023-05-11T01:49:09.551Z,4.97
2023-05-11T01:51:38.648Z,4.37
2023-05-11T01:54:10.720Z,4.70
2023-05-11T01:56:40.538Z,4.47
2023-05-11T01:59:09.765Z,5.63
2023-05-11T02:01:39.231Z,4.43
2023-05-11T02:04:07.846Z,5.90
2023-05-11T02:06:36.701Z,4.93
2023-05-11T02:09:05.301Z,5.13
2023-05-11T02:11:34.635Z,5.20
2023-05-11T02:14:04.097Z,5.63
2023-05-11T02:16:33.332Z,4.97
2023-05-11T02:19:01.705Z,6.50
2023-05-11T02:21:31.898Z,6.47
2023-05-11T02:24:01.450Z,6.07
2023-05-11T02:28:56.622Z,6.10
2023-05-11T02:31:26.633Z,6.57
2023-05-11T02:33:56.290Z,6.17
2023-05-11T02:36:26.322Z,6.70
2023-05-11T02:38:56.261Z,6.13
2023-05-11T02:41:26.087Z,5.80
2023-05-11T02:43:55.608Z,6.07
2023-05-11T02:46:24.973Z,6.47
2023-05-11T02:48:55.280Z,6.37
2023-05-11T02:51:25.186Z,5.20
2023-05-11T02:53:54.593Z,6.37
2023-05-11T02:56:24.067Z,5.90
2023-05-11T02:58:52.159Z,5.57
2023-05-11T03:01:20.936Z,6.23
2023-05-11T03:03:49.797Z,6.30
2023-05-11T03:06:18.326Z,5.97
2023-05-11T03:08:47.310Z,6.63
2023-05-11T03:11:16.008Z,6.03
2023-05-11T03:13:45.155Z,7.13
2023-05-11T03:16:13.972Z,8.17
2023-05-11T03:18:42.508Z,7.23
2023-05-11T03:21:11.002Z,7.60
2023-05-11T03:23:40.818Z,7.00
2023-05-11T03:26:09.473Z,7.17
2023-05-11T03:28:37.820Z,6.40
2023-05-11T03:31:06.123Z,6.27
2023-05-11T03:33:34.489Z,6.70
2023-05-11T03:36:04.098Z,7.73
2023-05-11T03:40:59.778Z,7.55
2023-05-11T03:43:30.157Z,8.03
2023-05-11T03:45:59.078Z,8.20
2023-05-11T03:48:27.939Z,8.40
2023-05-11T03:50:56.682Z,9.30
2023-05-11T03:53:25.578Z,9.20
2023-05-11T03:55:54.104Z,8.63
2023-05-11T03:58:22.842Z,9.43
2023-05-11T04:00:50.922Z,8.33
2023-05-11T04:03:19.811Z,8.83
2023-05-11T04:05:48.534Z,8.10
2023-05-11T04:08:16.509Z,10.10
2023-05-11T04:10:44.882Z,9.13
2023-05-11T04:13:13.363Z,8.77
2023-05-11T04:15:42.090Z,9.80
2023-05-11T04:18:11.284Z,8.70
2023-05-11T04:20:39.619Z,8.87
2023-05-11T04:23:10.333Z,9.40
2023-05-11T04:25:38.337Z,10.33
2023-05-11T04:28:06.779Z,10.40
2023-05-11T04:30:35.085Z,10.03
2023-05-11T04:33:04.514Z,11.10
2023-05-11T04:35:32.923Z,10.90
2023-05-11T04:38:01.421Z,10.33
2023-05-11T04:40:29.312Z,10.13
2023-05-11T04:42:57.769Z,9.83
2023-05-11T04:45:26.289Z,10.73
2023-05-11T04:47:54.894Z,10.33
2023-05-11T04:50:23.177Z,8.90
2023-05-11T04:52:52.242Z,10.10
2023-05-11T04:55:21.411Z,10.53
2023-05-11T04:57:50.104Z,10.40
2023-05-11T05:00:19.124Z,11.37
2023-05-11T05:02:47.440Z,10.83
2023-05-11T05:05:16.284Z,10.67
2023-05-11T05:07:44.204Z,9.20
2023-05-11T05:10:13.301Z,10.83
2023-05-11T05:12:42.042Z,9.70
2023-05-11T05:15:11.855Z,11.00
2023-05-11T05:17:40.296Z,10.73
2023-05-11T05:20:09.172Z,10.43
2023-05-11T05:22:37.498Z,9.83
2023-05-11T05:25:06.302Z,12.30
2023-05-11T05:27:35.231Z,13.13
2023-05-11T05:30:03.677Z,10.17
2023-05-11T05:32:31.550Z,10.40
2023-05-11T05:35:00.177Z,13.37
2023-05-11T05:37:28.836Z,12.23
2023-05-11T05:39:57.350Z,12.47
2023-05-11T05:42:26.071Z,10.60
2023-05-11T05:44:53.860Z,12.53
2023-05-11T05:47:22.163Z,10.70
2023-05-11T05:49:50.643Z,10.80
2023-05-11T05:52:19.378Z,10.73
2023-05-11T05:54:47.552Z,9.27
2023-05-11T05:57:15.991Z,9.43
2023-05-11T05:59:45.434Z,10.60
2023-05-11T06:02:13.931Z,11.60
2023-05-11T06:04:42.257Z,10.07
2023-05-11T06:07:10.890Z,9.13
2023-05-11T06:09:39.437Z,10.93
2023-05-11T06:12:08.698Z,11.23
2023-05-11T06:14:37.195Z,10.13
2023-05-11T06:17:05.737Z,11.30
2023-05-11T06:19:33.628Z,10.57
2023-05-11T06:22:02.669Z,12.33
2023-05-11T06:26:59.246Z,10.18
2023-05-11T06:29:27.666Z,10.10
2023-05-11T06:31:56.414Z,9.97
2023-05-11T06:34:25.201Z,10.00
2023-05-11T06:36:53.689Z,8.47
2023-05-11T06:39:21.620Z,9.77
2023-05-11T06:41:51.043Z,8.63
2023-05-11T06:44:19.424Z,7.07
2023-05-11T06:46:47.686Z,9.30
2023-05-11T06:49:16.303Z,8.80
2023-05-11T06:51:44.682Z,9.63
2023-05-11T06:54:13.166Z,8.73
2023-05-11T06:56:41.844Z,8.07
2023-05-11T06:59:10.327Z,7.20
2023-05-11T07:01:39.020Z,7.53
2023-05-11T07:04:07.680Z,8.27
2023-05-11T07:06:36.073Z,7.03
2023-05-11T07:09:04.412Z,7.03
2023-05-11T07:11:32.979Z,7.37
2023-05-11T07:14:00.977Z,6.17
2023-05-11T07:16:29.508Z,6.00
2023-05-11T07:18:58.096Z,6.63
2023-05-11T07:21:26.721Z,6.17
2023-05-11T07:23:54.658Z,6.00
2023-05-11T07:26:23.071Z,5.37
2023-05-11T07:28:51.581Z,5.40
2023-05-11T07:31:19.979Z,5.10
2023-05-11T07:33:48.449Z,5.10
2023-05-11T07:36:16.925Z,5.43
2023-05-11T07:38:45.109Z,5.00
2023-05-11T07:41:13.607Z,4.30
2023-05-11T07:43:42.064Z,4.47
2023-05-11T07:46:10.568Z,4.70
2023-05-11T07:48:38.983Z,5.07
2023-05-11T07:51:07.565Z,4.20
2023-05-11T07:53:36.680Z,5.73
2023-05-11T07:56:05.435Z,4.97
2023-05-11T07:58:33.872Z,3.93
2023-05-11T08:01:02.394Z,6.17
2023-05-11T08:03:30.684Z,5.27
2023-05-11T08:05:59.507Z,4.90
2023-05-11T08:08:27.917Z,5.27
2023-05-11T08:10:56.692Z,4.80
2023-05-11T08:15:54.515Z,4.83
2023-05-11T08:18:22.975Z,5.03
2023-05-11T08:20:51.386Z,4.10
2023-05-11T08:23:19.764Z,4.53
2023-05-11T08:25:52.564Z,4.73
2023-05-11T08:28:21.166Z,3.67
2023-05-11T08:30:56.141Z,5.23
2023-05-11T08:33:36.689Z,4.23
2023-05-11T08:35:54.830Z,3.27
2023-05-11T08:38:23.121Z,3.47
2023-05-11T08:40:52.796Z,3.70
2023-05-11T08:43:21.563Z,3.50
2023-05-11T08:45:52.757Z,4.20
2023-05-11T08:48:23.109Z,3.80
2023-05-11T08:50:51.349Z,3.73
2023-05-11T08:53:19.687Z,3.30
2023-05-11T08:55:49.123Z,4.20
2023-05-11T09:00:47.828Z,4.00
2023-05-11T09:03:18.015Z,3.63
2023-05-11T09:05:46.965Z,4.37
2023-05-11T09:08:16.338Z,3.13
2023-05-11T09:10:45.359Z,5.17
2023-05-11T09:13:13.778Z,4.30
2023-05-11T09:15:42.370Z,4.73
2023-05-11T09:18:10.870Z,4.77
2023-05-11T09:20:40.711Z,4.73
2023-05-11T09:23:08.779Z,5.30
2023-05-11T09:25:39.567Z,6.23
2023-05-11T09:28:07.893Z,3.93
2023-05-11T09:30:35.772Z,6.67
2023-05-11T09:33:05.325Z,5.10
2023-05-11T09:35:34.358Z,4.50
2023-05-11T09:38:10.123Z,6.60
2023-05-11T09:40:45.194Z,5.30
2023-05-11T09:43:18.054Z,7.50
2023-05-11T09:45:47.634Z,6.97
2023-05-11T09:50:43.526Z,6.20
2023-05-11T09:53:12.258Z,4.90
2023-05-11T09:55:40.332Z,5.87
2023-05-11T09:58:10.241Z,5.20
2023-05-11T10:00:40.098Z,3.83
2023-05-11T10:03:09.320Z,4.10
2023-05-11T10:05:38.178Z,4.67
2023-05-11T10:08:07.207Z,5.30
2023-05-11T10:10:35.685Z,4.43
2023-05-11T10:13:04.141Z,4.17
2023-05-11T10:15:34.433Z,4.70
2023-05-11T10:18:02.686Z,3.80
2023-05-11T10:20:31.286Z,5.00
2023-05-11T10:22:59.976Z,4.27
2023-05-11T10:25:28.349Z,4.90
2023-05-11T10:27:58.069Z,4.70
2023-05-11T10:30:26.816Z,3.43
2023-05-11T10:32:55.799Z,3.93
2023-05-11T10:35:24.490Z,3.67
2023-05-11T10:37:53.074Z,3.80
2023-05-11T10:40:21.620Z,3.80
2023-05-11T10:42:57.344Z,3.63
2023-05-11T10:48:11.310Z,2.85
2023-05-11T10:50:44.035Z,3.27
2023-05-11T10:53:30.125Z,3.83
2023-05-11T10:56:03.586Z,3.97
2023-05-11T10:58:42.562Z,4.43
2023-05-11T11:01:12.618Z,5.73
2023-05-11T11:03:41.373Z,3.60
2023-05-11T11:06:11.389Z,4.33
2023-05-11T11:08:50.518Z,3.03
2023-05-11T11:11:32.891Z,3.20
2023-05-11T11:14:04.037Z,4.23
2023-05-11T11:16:32.967Z,3.03
2023-05-11T11:19:19.315Z,3.77
2023-05-11T11:21:49.178Z,3.50
2023-05-11T11:24:35.666Z,4.30
2023-05-11T11:27:04.771Z,4.00
2023-05-11T11:29:33.449Z,3.43
2023-05-11T11:32:19.828Z,3.83
2023-05-11T11:34:48.345Z,5.43
2023-05-11T11:37:17.295Z,3.57
2023-05-11T11:39:47.196Z,5.33
2023-05-11T11:42:16.655Z,3.93
2023-05-11T11:44:46.354Z,4.23
2023-05-11T11:47:20.816Z,3.50
2023-05-11T11:49:51.972Z,4.47
2023-05-11T11:52:30.665Z,4.10
2023-05-11T11:55:03.169Z,4.53
2023-05-11T11:57:33.112Z,3.13
2023-05-11T12:00:01.783Z,4.27
2023-05-11T12:02:30.366Z,4.23
2023-05-11T12:05:00.668Z,3.53
2023-05-11T12:07:30.908Z,3.70
2023-05-11T12:09:59.585Z,3.93
2023-05-11T12:12:28.589Z,4.40
2023-05-11T12:14:56.906Z,4.40
2023-05-11T12:17:28.492Z,3.87
2023-05-11T12:19:58.427Z,4.30
2023-05-11T12:22:27.347Z,4.53
2023-05-11T12:25:00.485Z,3.73
2023-05-11T12:27:28.907Z,4.93
2023-05-11T12:29:59.116Z,4.20
2023-05-11T12:32:28.773Z,4.60
2023-05-11T12:35:04.753Z,5.20
2023-05-11T12:37:33.062Z,4.10
2023-05-11T12:40:00.938Z,5.67
2023-05-11T12:42:29.416Z,3.93
2023-05-11T12:44:57.784Z,3.57
2023-05-11T12:47:26.313Z,4.50
2023-05-11T12:49:54.335Z,5.00
2023-05-11T12:52:24.555Z,3.90
2023-05-11T12:54:54.069Z,4.53
2023-05-11T12:57:26.133Z,3.70
2023-05-11T13:00:08.392Z,4.90
2023-05-11T13:02:37.143Z,4.77
2023-05-11T13:05:13.196Z,4.50
2023-05-11T13:07:41.720Z,3.87
2023-05-11T13:10:10.396Z,5.03
2023-05-11T13:12:40.273Z,4.60
2023-05-11T13:15:13.168Z,4.40
2023-05-11T13:17:42.923Z,4.57
2023-05-11T13:20:22.653Z,5.27
2023-05-11T13:22:51.554Z,5.23
2023-05-11T13:25:22.034Z,4.80
2023-05-11T13:27:51.335Z,4.87
2023-05-11T13:30:19.733Z,5.67
2023-05-11T13:32:48.302Z,4.50
2023-05-11T13:35:17.360Z,5.27
2023-05-11T13:37:47.559Z,5.70
2023-05-11T13:40:16.094Z,6.27
2023-05-11T13:42:44.575Z,5.80
2023-05-11T13:45:13.228Z,5.37
2023-05-11T13:47:43.253Z,6.23
2023-05-11T13:50:12.540Z,6.80
2023-05-11T13:52:40.881Z,6.73
2023-05-11T13:55:09.344Z,5.63
2023-05-11T13:57:37.740Z,5.73
2023-05-11T14:00:07.449Z,6.40
2023-05-11T14:02:36.734Z,5.97
2023-05-11T14:07:45.671Z,4.85
2023-05-11T14:10:04.186Z,5.80
2023-05-11T14:12:32.907Z,4.73
2023-05-11T14:15:01.390Z,4.30
2023-05-11T14:17:32.852Z,5.07
2023-05-11T14:20:00.986Z,5.57
2023-05-11T14:22:29.736Z,6.13
2023-05-11T14:24:58.079Z,5.87
2023-05-11T14:27:26.462Z,5.90
2023-05-11T14:29:55.870Z,5.67
2023-05-11T14:32:24.676Z,5.50
2023-05-11T14:34:53.124Z,6.73
2023-05-11T14:37:22.631Z,5.50
2023-05-11T14:39:50.930Z,5.60
2023-05-11T14:42:20.015Z,4.80
2023-05-11T14:44:49.708Z,5.33
2023-05-11T14:47:18.311Z,4.57
2023-05-11T14:49:46.720Z,5.53
2023-05-11T14:52:15.263Z,5.50
2023-05-11T14:54:43.641Z,5.50
2023-05-11T14:57:12.391Z,4.67
2023-05-11T14:59:51.128Z,4.47
2023-05-11T15:02:11.483Z,4.70
2023-05-11T15:04:40.979Z,4.97
2023-05-11T15:09:36.797Z,3.72
2023-05-11T15:12:05.509Z,4.93
2023-05-11T15:14:33.743Z,5.60
2023-05-11T15:17:01.973Z,5.10
2023-05-11T15:19:29.856Z,5.17
2023-05-11T15:21:58.471Z,6.50
2023-05-11T15:24:26.953Z,6.30
2023-05-11T15:26:55.336Z,5.57
2023-05-11T15:29:23.516Z,5.80
2023-05-11T15:31:51.954Z,5.87
2023-05-11T15:34:20.781Z,6.67
2023-05-11T15:36:50.286Z,5.73
2023-05-11T15:41:48.782Z,6.00
2023-05-11T15:44:17.576Z,6.93
2023-05-11T15:46:46.789Z,7.17
2023-05-11T15:49:16.281Z,5.37
2023-05-11T15:51:44.494Z,7.57
2023-05-11T15:54:13.341Z,6.63
2023-05-11T15:56:41.716Z,8.40
2023-05-11T15:59:10.411Z,7.47
2023-05-11T16:01:38.430Z,8.90
2023-05-11T16:04:07.166Z,7.03
2023-05-11T16:06:35.699Z,6.70
2023-05-11T16:09:04.569Z,7.10
2023-05-11T16:11:32.995Z,6.67
2023-05-11T16:14:01.397Z,6.47
2023-05-11T16:16:30.086Z,7.33
2023-05-11T16:18:59.787Z,9.00
2023-05-11T16:21:27.818Z,7.53
2023-05-11T16:23:56.244Z,12.00
2023-05-11T16:26:24.688Z,12.37
2023-05-11T16:28:53.140Z,11.47
2023-05-11T16:31:21.070Z,8.93
2023-05-11T16:33:51.065Z,7.10
2023-05-11T16:36:19.117Z,7.33
2023-05-11T16:38:46.945Z,7.37
2023-05-11T16:41:15.452Z,6.90
2023-05-11T16:43:44.202Z,7.77
2023-05-11T16:46:12.764Z,7.53
2023-05-11T16:48:41.557Z,8.23
2023-05-11T16:51:10.377Z,8.50
2023-05-11T16:53:38.260Z,7.33
2023-05-11T16:56:07.138Z,7.70
2023-05-11T16:58:35.902Z,7.87
2023-05-11T17:01:05.106Z,9.97
2023-05-11T17:03:34.584Z,9.37
2023-05-11T17:06:03.608Z,10.73
2023-05-11T17:08:33.581Z,12.40
2023-05-11T17:11:01.953Z,13.33
2023-05-11T17:13:30.312Z,10.77
2023-05-11T17:15:58.808Z,12.33
2023-05-11T17:18:27.426Z,12.27
2023-05-11T17:20:56.392Z,11.43
2023-05-11T17:23:25.925Z,10.90
2023-05-11T17:25:54.781Z,6.97
2023-05-11T17:28:23.227Z,7.77
2023-05-11T17:30:52.740Z,7.37
2023-05-11T17:33:21.672Z,8.70
2023-05-11T17:35:50.819Z,8.53
2023-05-11T17:38:19.270Z,11.03
2023-05-11T17:40:48.390Z,11.87
2023-05-11T17:43:17.090Z,10.83
2023-05-11T17:45:45.476Z,11.83
2023-05-11T17:48:13.545Z,12.40
2023-05-11T17:50:42.003Z,10.43
2023-05-11T17:53:11.010Z,9.27
2023-05-11T17:55:39.846Z,8.47
2023-05-11T17:58:08.164Z,9.50
2023-05-11T18:00:36.429Z,9.23
2023-05-11T18:03:04.966Z,10.07
2023-05-11T18:05:44.676Z,7.80
2023-05-11T18:08:05.452Z,6.57
2023-05-11T18:10:34.774Z,7.87
2023-05-11T18:13:03.875Z,7.33
2023-05-11T18:15:32.243Z,9.07
2023-05-11T18:18:00.971Z,9.30
2023-05-11T18:20:29.340Z,7.27
2023-05-11T18:22:57.879Z,6.80
2023-05-11T18:25:27.397Z,8.13
2023-05-11T18:30:23.170Z,6.85
2023-05-11T18:32:51.620Z,7.40
2023-05-11T18:35:21.326Z,6.17
2023-05-11T18:37:49.816Z,6.23
2023-05-11T18:40:18.284Z,6.07
2023-05-11T18:42:48.729Z,6.40
2023-05-11T18:45:17.521Z,7.70
2023-05-11T18:47:46.813Z,6.13
2023-05-11T18:50:15.592Z,6.13
2023-05-11T18:52:44.076Z,6.43
2023-05-11T18:55:12.053Z,5.77
2023-05-11T18:57:40.474Z,8.23
2023-05-11T19:00:10.897Z,5.03
2023-05-11T19:02:39.503Z,7.67
2023-05-11T19:05:08.432Z,8.27
2023-05-11T19:07:36.268Z,9.30
2023-05-11T19:10:04.907Z,11.20
2023-05-11T19:12:33.262Z,10.30
2023-05-11T19:15:01.338Z,7.70
2023-05-11T19:17:29.908Z,7.97
2023-05-11T19:19:58.310Z,9.43
2023-05-11T19:22:26.340Z,9.80
2023-05-11T19:24:54.349Z,11.10
2023-05-11T19:27:22.717Z,8.87
2023-05-11T19:29:50.746Z,9.80
2023-05-11T19:32:19.372Z,9.53
2023-05-11T19:34:47.853Z,9.03
2023-05-11T19:37:15.945Z,8.63
2023-05-11T19:39:44.817Z,8.87
2023-05-11T19:42:13.095Z,9.40
2023-05-11T19:44:43.235Z,8.93
2023-05-11T19:47:11.608Z,8.70
2023-05-11T19:49:40.073Z,8.33
2023-05-11T19:52:08.598Z,8.90
2023-05-11T19:54:37.334Z,10.40
2023-05-11T19:57:06.020Z,10.77
2023-05-11T19:59:34.604Z,8.97
2023-05-11T20:02:04.221Z,8.90
2023-05-11T20:04:33.056Z,9.87
2023-05-11T20:07:01.693Z,8.73
2023-05-11T20:09:30.583Z,9.93
2023-05-11T20:11:58.511Z,9.37
2023-05-11T20:14:27.884Z,9.07
2023-05-11T20:16:56.291Z,8.90
2023-05-11T20:19:24.825Z,7.37
2023-05-11T20:21:52.675Z,8.73
2023-05-11T20:24:21.167Z,7.77
2023-05-11T20:26:49.574Z,7.63
2023-05-11T20:29:17.995Z,8.17
2023-05-11T20:31:47.165Z,8.13
2023-05-11T20:34:15.949Z,7.13
2023-05-11T20:36:44.489Z,6.73
2023-05-11T20:39:13.897Z,7.27
2023-05-11T20:44:10.075Z,6.75
2023-05-11T20:49:06.875Z,6.42
2023-05-11T20:51:36.310Z,4.80
2023-05-11T20:54:05.607Z,4.53
2023-05-11T20:56:34.335Z,4.33
2023-05-11T20:59:02.775Z,4.90
2023-05-11T21:01:31.270Z,4.00
2023-05-11T21:03:59.840Z,4.67
2023-05-11T21:06:28.332Z,3.93
2023-05-11T21:08:56.853Z,4.13
2023-05-11T21:11:25.498Z,4.40
2023-05-11T21:13:53.977Z,3.67
2023-05-11T21:16:22.325Z,3.47
2023-05-11T21:18:51.216Z,3.93
2023-05-11T21:21:19.503Z,4.03
2023-05-11T21:23:47.798Z,3.60
2023-05-11T21:26:16.170Z,3.13
2023-05-11T21:28:44.467Z,3.50
2023-05-11T21:31:12.837Z,3.70
2023-05-11T21:33:41.816Z,2.47
2023-05-11T21:36:10.401Z,3.23
2023-05-11T21:38:38.898Z,3.90
2023-05-11T21:41:06.988Z,2.93
2023-05-11T21:43:35.743Z,3.07
2023-05-11T21:46:04.259Z,3.50
2023-05-11T21:48:32.438Z,3.53
2023-05-11T21:51:00.939Z,2.97
2023-05-11T21:53:29.277Z,3.43
2023-05-11T21:55:57.752Z,3.20
2023-05-11T21:58:26.434Z,3.37
2023-05-11T22:00:55.468Z,3.30
2023-05-11T22:03:24.147Z,3.50
2023-05-11T22:05:52.142Z,3.00
2023-05-11T22:08:19.935Z,3.43
2023-05-11T22:10:48.439Z,3.90
2023-05-11T22:13:16.810Z,2.73
2023-05-11T22:15:45.503Z,3.37
2023-05-11T22:18:13.889Z,3.57
2023-05-11T22:20:42.363Z,3.30
2023-05-11T22:23:10.640Z,3.43
2023-05-11T22:25:38.618Z,3.40
2023-05-11T22:28:07.964Z,3.80
2023-05-11T22:30:36.188Z,3.30
2023-05-11T22:33:04.536Z,3.07
2023-05-11T22:35:33.202Z,2.90
2023-05-11T22:38:02.207Z,4.53
2023-05-11T22:40:30.623Z,2.70
2023-05-11T22:42:58.994Z,2.40
2023-05-11T22:45:26.935Z,3.37
2023-05-11T22:47:55.515Z,3.73
2023-05-11T22:50:24.056Z,3.03
2023-05-11T22:52:52.620Z,2.83
2023-05-11T22:55:22.998Z,2.70
2023-05-11T22:57:51.531Z,2.93
2023-05-11T23:00:20.999Z,3.13
2023-05-11T23:05:16.349Z,3.42
2023-05-11T23:07:44.734Z,3.07
2023-05-11T23:10:12.664Z,2.93
2023-05-11T23:12:40.591Z,2.27
2023-05-11T23:15:10.109Z,2.60
2023-05-11T23:17:38.788Z,3.03
2023-05-11T23:20:09.414Z,2.80
2023-05-11T23:22:37.768Z,3.00
2023-05-11T23:25:06.467Z,3.10
2023-05-11T23:27:34.892Z,3.23
2023-05-11T23:30:03.313Z,2.80
2023-05-11T23:32:31.674Z,3.90
2023-05-11T23:35:00.495Z,3.00
2023-05-11T23:37:28.885Z,3.10
2023-05-11T23:39:57.365Z,2.80
2023-05-11T23:42:25.876Z,3.20
2023-05-11T23:44:54.994Z,3.50
2023-05-11T23:47:23.895Z,3.50
2023-05-11T23:49:52.232Z,3.27
2023-05-11T23:52:20.680Z,3.00
2023-05-11T23:54:50.147Z,3.47
2023-05-11T23:57:18.347Z,3.63
2023-05-11T23:59:46.729Z,2.93
